Terminal Aerodrome Forecast
Issued by NWS

Home | Current Version | Previous Version | Text Only | Print | Product List | Glossary On
Versions: 1 2 3 4 5 6 7 8 9 10 11 12 13 14 15 16 17 18 19 20 21 22 23 24 25 26 27 28 29 30
794
FTUS44 KMAF 221700
TAFHOB
TAF
KHOB 221733Z 2218/2318 14007KT 6SM BR OVC005
     FM221900 14009KT P6SM OVC012
     FM222200 13010KT P6SM FEW200
     FM230100 14017KT P6SM BKN030 PROB30 2305/2310 5SM TSRA BKN015CB
     FM231000 19011KT P6SM BKN015
     FM231400 20013KT P6SM FEW200=

USA.gov is the U.S. government's official web portal to all federal, state and local government web resources and services.